Titan — WDG3294 — position and weather

sailwx.info

Track history (hours):
 
Tides and Currents Weather Stations Pressure Air Temp Water Temp Dewpoint Dewpoint Depression Visibility Wind Speed Wind Dir Waves Ship Positions

Titan

Owner: Titan Fishing, LLC, New Bedford, MA. More information available from US FCC via Universal Licensing System and Coast Guard Vessel Documentation Center.

Last reported at 2017-Dec-13 07:53 UTC. Time now 2018-Feb-25 10:03 UTC.
Position N 25°25' W 080°06'.
Warning: this ship's position is months out of date.

; draft 4 m.

Type: Other ship. MMSI: 367524560.

Date/timePositionNaut miles runAvg speedWind from/ knotsBaromVisibWave heightAir tempDewpointWater temp
2017-Dec-13 07:53N 25°25' W 080°06'4 8.9
2017-Dec-13 07:30N 25°29' W 080°05'4 9.2
2017-Dec-13 07:01N 25°33' W 080°05'5 9.5
2017-Dec-13 06:30N 25°38' W 080°04'4 8.6
2017-Dec-13 06:01N 25°42' W 080°04'4 8.9
2017-Dec-13 05:30N 25°47' W 080°04'4 9.0
2017-Dec-13 05:01N 25°51' W 080°05'4 8.8
2017-Dec-13 04:30N 25°56' W 080°05'4 8.7
2017-Dec-13 04:00N 25°60' W 080°04'5 9.2
2017-Dec-13 03:31N 26°04' W 080°04'5 9.7
2017-Dec-13 03:00N 26°09' W 080°04'5 9.3
2017-Dec-13 02:30N 26°14' W 080°04'5 9.0
2017-Dec-13 02:00N 26°18' W 080°03'5 9.0
2017-Dec-13 01:29N 26°23' W 080°03'4 8.8
2017-Dec-13 01:00N 26°27' W 080°02'5 8.4
2017-Dec-13 00:28N 26°32' W 080°02'5 8.5
2017-Dec-12 23:51N 26°37' W 080°01'3 8.9
2017-Dec-12 23:30N 26°40' W 080°01'5 9.0
2017-Dec-12 23:00N 26°45' W 080°01'4 8.6
2017-Dec-12 22:30N 26°49' W 080°01'5 9.5
2017-Dec-12 22:01N 26°54' W 080°02'5 9.4
2017-Dec-12 21:30N 26°58' W 080°03'5 9.0
2017-Dec-12 21:00N 27°03' W 080°04'  
2017-Dec-08 15:26N 39°33' W 074°03'4 9.3
2017-Dec-08 14:59N 39°37' W 074°01'5 9.3
2017-Dec-08 14:29N 39°42' W 073°59'  
Track history (hours):
 
Tides and Currents Weather Stations Pressure Air Temp Water Temp Dewpoint Dewpoint Depression Visibility Wind Speed Wind Dir Waves Ship Positions

Titan

Owner: Titan Fishing, LLC, New Bedford, MA. More information available from US FCC via Universal Licensing System and Coast Guard Vessel Documentation Center.

Last reported at 2017-Dec-13 07:53 UTC. Time now 2018-Feb-25 10:03 UTC.
Position N 25°25' W 080°06'.
Warning: this ship's position is months out of date.

; draft 4 m.

Type: Other ship. MMSI: 367524560.

Date/timePositionNaut miles runAvg speedWind from/ knotsBaromVisibWave heightAir tempDewpointWater temp
2017-Dec-13 07:53N 25°25' W 080°06'4 8.9
2017-Dec-13 07:30N 25°29' W 080°05'4 9.2
2017-Dec-13 07:01N 25°33' W 080°05'5 9.5
2017-Dec-13 06:30N 25°38' W 080°04'4 8.6
2017-Dec-13 06:01N 25°42' W 080°04'4 8.9
2017-Dec-13 05:30N 25°47' W 080°04'4 9.0
2017-Dec-13 05:01N 25°51' W 080°05'4 8.8
2017-Dec-13 04:30N 25°56' W 080°05'4 8.7
2017-Dec-13 04:00N 25°60' W 080°04'5 9.2
2017-Dec-13 03:31N 26°04' W 080°04'5 9.7
2017-Dec-13 03:00N 26°09' W 080°04'5 9.3
2017-Dec-13 02:30N 26°14' W 080°04'5 9.0
2017-Dec-13 02:00N 26°18' W 080°03'5 9.0
2017-Dec-13 01:29N 26°23' W 080°03'4 8.8
2017-Dec-13 01:00N 26°27' W 080°02'5 8.4
2017-Dec-13 00:28N 26°32' W 080°02'5 8.5
2017-Dec-12 23:51N 26°37' W 080°01'3 8.9
2017-Dec-12 23:30N 26°40' W 080°01'5 9.0
2017-Dec-12 23:00N 26°45' W 080°01'4 8.6
2017-Dec-12 22:30N 26°49' W 080°01'5 9.5
2017-Dec-12 22:01N 26°54' W 080°02'5 9.4
2017-Dec-12 21:30N 26°58' W 080°03'5 9.0
2017-Dec-12 21:00N 27°03' W 080°04'  
2017-Dec-08 15:26N 39°33' W 074°03'4 9.3
2017-Dec-08 14:59N 39°37' W 074°01'5 9.3
2017-Dec-08 14:29N 39°42' W 073°59'  

Dump ship's entire track history